sensor_id;sensor_type;location;lat;lon;timestamp;P1;durP1;ratioP1;P2;durP2;ratioP2
55800;SDS011;41730;51.960;20.158;2022-11-25T00:01:44;83.10;;;29.80;;
55800;SDS011;41730;51.960;20.158;2022-11-25T00:04:16;87.60;;;33.70;;
55800;SDS011;41730;51.960;20.158;2022-11-25T00:06:47;90.70;;;31.50;;
55800;SDS011;41730;51.960;20.158;2022-11-25T00:09:18;81.30;;;29.40;;
55800;SDS011;41730;51.960;20.158;2022-11-25T00:11:50;87.60;;;31.00;;
55800;SDS011;41730;51.960;20.158;2022-11-25T00:14:21;90.80;;;32.10;;
55800;SDS011;41730;51.960;20.158;2022-11-25T00:16:53;91.00;;;32.60;;
55800;SDS011;41730;51.960;20.158;2022-11-25T00:19:24;78.10;;;30.30;;
55800;SDS011;41730;51.960;20.158;2022-11-25T00:21:55;95.90;;;30.20;;
55800;SDS011;41730;51.960;20.158;2022-11-25T00:24:27;77.60;;;28.40;;
55800;SDS011;41730;51.960;20.158;2022-11-25T00:26:59;78.60;;;27.70;;
55800;SDS011;41730;51.960;20.158;2022-11-25T00:29:32;77.80;;;27.40;;
55800;SDS011;41730;51.960;20.158;2022-11-25T00:32:03;69.50;;;26.80;;
55800;SDS011;41730;51.960;20.158;2022-11-25T00:34:35;77.90;;;27.50;;
55800;SDS011;41730;51.960;20.158;2022-11-25T00:37:06;83.50;;;27.10;;
55800;SDS011;41730;51.960;20.158;2022-11-25T00:39:37;78.50;;;27.90;;
55800;SDS011;41730;51.960;20.158;2022-11-25T00:42:09;68.60;;;26.00;;
55800;SDS011;41730;51.960;20.158;2022-11-25T00:44:58;77.10;;;27.20;;
55800;SDS011;41730;51.960;20.158;2022-11-25T00:47:29;61.30;;;25.00;;
55800;SDS011;41730;51.960;20.158;2022-11-25T00:50:01;75.20;;;27.30;;
55800;SDS011;41730;51.960;20.158;2022-11-25T00:52:33;71.40;;;25.50;;
55800;SDS011;41730;51.960;20.158;2022-11-25T00:55:05;75.20;;;26.40;;
55800;SDS011;41730;51.960;20.158;2022-11-25T00:57:37;72.80;;;27.60;;
55800;SDS011;41730;51.960;20.158;2022-11-25T01:00:10;80.10;;;27.70;;
55800;SDS011;41730;51.960;20.158;2022-11-25T01:02:42;63.70;;;23.30;;
55800;SDS011;41730;51.960;20.158;2022-11-25T01:05:14;79.30;;;26.90;;
55800;SDS011;41730;51.960;20.158;2022-11-25T01:07:45;68.80;;;26.40;;
55800;SDS011;41730;51.960;20.158;2022-11-25T01:10:16;71.90;;;25.40;;
55800;SDS011;41730;51.960;20.158;2022-11-25T01:12:48;70.50;;;24.30;;
55800;SDS011;41730;51.960;20.158;2022-11-25T01:15:19;63.70;;;23.40;;
55800;SDS011;41730;51.960;20.158;2022-11-25T01:17:50;65.10;;;25.00;;
55800;SDS011;41730;51.960;20.158;2022-11-25T01:20:22;74.50;;;24.30;;
55800;SDS011;41730;51.960;20.158;2022-11-25T01:22:53;71.10;;;25.40;;
55800;SDS011;41730;51.960;20.158;2022-11-25T01:25:25;71.70;;;26.80;;
55800;SDS011;41730;51.960;20.158;2022-11-25T01:27:56;62.40;;;24.20;;
55800;SDS011;41730;51.960;20.158;2022-11-25T01:30:27;74.50;;;26.90;;
55800;SDS011;41730;51.960;20.158;2022-11-25T01:33:05;69.00;;;25.40;;
55800;SDS011;41730;51.960;20.158;2022-11-25T01:35:37;72.40;;;25.50;;
55800;SDS011;41730;51.960;20.158;2022-11-25T01:38:08;65.00;;;23.50;;
55800;SDS011;41730;51.960;20.158;2022-11-25T01:40:40;62.60;;;23.30;;
55800;SDS011;41730;51.960;20.158;2022-11-25T01:43:12;52.20;;;21.50;;
55800;SDS011;41730;51.960;20.158;2022-11-25T01:45:44;62.90;;;22.60;;
55800;SDS011;41730;51.960;20.158;2022-11-25T01:48:17;66.90;;;25.20;;
55800;SDS011;41730;51.960;20.158;2022-11-25T01:50:54;72.60;;;24.40;;
55800;SDS011;41730;51.960;20.158;2022-11-25T01:53:26;64.10;;;23.40;;
55800;SDS011;41730;51.960;20.158;2022-11-25T01:55:59;58.10;;;20.70;;
55800;SDS011;41730;51.960;20.158;2022-11-25T01:58:33;59.40;;;22.60;;
55800;SDS011;41730;51.960;20.158;2022-11-25T02:01:06;49.40;;;19.50;;
55800;SDS011;41730;51.960;20.158;2022-11-25T02:03:40;55.50;;;21.60;;
55800;SDS011;41730;51.960;20.158;2022-11-25T02:06:16;51.40;;;21.30;;
55800;SDS011;41730;51.960;20.158;2022-11-25T02:08:52;54.80;;;20.80;;
55800;SDS011;41730;51.960;20.158;2022-11-25T02:11:26;51.70;;;19.20;;
55800;SDS011;41730;51.960;20.158;2022-11-25T02:13:59;50.10;;;19.40;;
55800;SDS011;41730;51.960;20.158;2022-11-25T02:16:32;52.90;;;22.30;;
55800;SDS011;41730;51.960;20.158;2022-11-25T02:19:04;51.30;;;18.80;;
55800;SDS011;41730;51.960;20.158;2022-11-25T02:21:42;50.30;;;20.50;;
55800;SDS011;41730;51.960;20.158;2022-11-25T02:24:19;56.60;;;21.70;;
55800;SDS011;41730;51.960;20.158;2022-11-25T02:26:58;49.90;;;19.00;;
55800;SDS011;41730;51.960;20.158;2022-11-25T02:29:30;58.50;;;23.40;;
55800;SDS011;41730;51.960;20.158;2022-11-25T02:32:03;53.90;;;19.90;;
55800;SDS011;41730;51.960;20.158;2022-11-25T02:34:44;55.70;;;20.90;;
55800;SDS011;41730;51.960;20.158;2022-11-25T02:37:17;49.00;;;19.70;;
55800;SDS011;41730;51.960;20.158;2022-11-25T02:39:51;58.50;;;22.10;;
55800;SDS011;41730;51.960;20.158;2022-11-25T02:42:24;61.90;;;23.40;;
55800;SDS011;41730;51.960;20.158;2022-11-25T02:44:59;60.40;;;21.60;;
55800;SDS011;41730;51.960;20.158;2022-11-25T02:47:31;60.80;;;22.30;;
55800;SDS011;41730;51.960;20.158;2022-11-25T02:50:03;59.20;;;21.80;;
55800;SDS011;41730;51.960;20.158;2022-11-25T02:52:36;61.30;;;22.40;;
55800;SDS011;41730;51.960;20.158;2022-11-25T02:55:08;61.00;;;21.80;;
55800;SDS011;41730;51.960;20.158;2022-11-25T02:57:40;58.60;;;21.80;;
55800;SDS011;41730;51.960;20.158;2022-11-25T03:00:12;56.60;;;22.00;;
55800;SDS011;41730;51.960;20.158;2022-11-25T03:02:45;65.90;;;22.90;;
55800;SDS011;41730;51.960;20.158;2022-11-25T03:05:17;59.50;;;23.10;;
55800;SDS011;41730;51.960;20.158;2022-11-25T03:07:48;56.40;;;21.00;;
55800;SDS011;41730;51.960;20.158;2022-11-25T03:10:20;55.30;;;19.90;;
55800;SDS011;41730;51.960;20.158;2022-11-25T03:12:51;51.50;;;19.20;;
55800;SDS011;41730;51.960;20.158;2022-11-25T03:15:23;61.50;;;21.80;;
55800;SDS011;41730;51.960;20.158;2022-11-25T03:17:55;51.10;;;19.90;;
55800;SDS011;41730;51.960;20.158;2022-11-25T03:20:26;62.00;;;22.90;;
55800;SDS011;41730;51.960;20.158;2022-11-25T03:22:58;53.60;;;20.20;;
55800;SDS011;41730;51.960;20.158;2022-11-25T03:25:29;50.60;;;21.30;;
55800;SDS011;41730;51.960;20.158;2022-11-25T03:28:01;57.40;;;20.50;;
55800;SDS011;41730;51.960;20.158;2022-11-25T03:30:33;60.00;;;21.50;;
55800;SDS011;41730;51.960;20.158;2022-11-25T03:33:04;53.10;;;22.00;;
55800;SDS011;41730;51.960;20.158;2022-11-25T03:35:36;56.10;;;21.20;;
55800;SDS011;41730;51.960;20.158;2022-11-25T03:38:07;55.90;;;21.20;;
55800;SDS011;41730;51.960;20.158;2022-11-25T03:40:39;52.00;;;20.70;;
55800;SDS011;41730;51.960;20.158;2022-11-25T03:43:10;57.30;;;19.90;;
55800;SDS011;41730;51.960;20.158;2022-11-25T03:45:42;48.40;;;20.00;;
55800;SDS011;41730;51.960;20.158;2022-11-25T03:48:16;51.60;;;21.40;;
55800;SDS011;41730;51.960;20.158;2022-11-25T03:50:48;58.70;;;20.30;;
55800;SDS011;41730;51.960;20.158;2022-11-25T03:53:19;52.50;;;19.90;;
55800;SDS011;41730;51.960;20.158;2022-11-25T03:55:51;60.40;;;21.60;;
55800;SDS011;41730;51.960;20.158;2022-11-25T03:58:22;56.60;;;20.90;;
55800;SDS011;41730;51.960;20.158;2022-11-25T04:00:54;53.40;;;20.60;;
55800;SDS011;41730;51.960;20.158;2022-11-25T04:03:28;51.10;;;19.70;;
55800;SDS011;41730;51.960;20.158;2022-11-25T04:06:00;55.30;;;21.40;;
55800;SDS011;41730;51.960;20.158;2022-11-25T04:08:31;52.90;;;21.70;;
55800;SDS011;41730;51.960;20.158;2022-11-25T04:11:02;51.40;;;20.60;;
55800;SDS011;41730;51.960;20.158;2022-11-25T04:13:34;56.30;;;21.30;;
55800;SDS011;41730;51.960;20.158;2022-11-25T04:16:06;53.20;;;20.00;;
55800;SDS011;41730;51.960;20.158;2022-11-25T04:18:46;53.80;;;19.70;;
55800;SDS011;41730;51.960;20.158;2022-11-25T04:21:17;60.30;;;22.70;;
55800;SDS011;41730;51.960;20.158;2022-11-25T04:23:49;59.90;;;20.50;;
55800;SDS011;41730;51.960;20.158;2022-11-25T04:26:20;58.40;;;22.40;;
55800;SDS011;41730;51.960;20.158;2022-11-25T04:28:59;60.70;;;23.10;;
55800;SDS011;41730;51.960;20.158;2022-11-25T04:31:44;59.30;;;21.90;;
55800;SDS011;41730;51.960;20.158;2022-11-25T04:34:28;55.90;;;21.20;;
55800;SDS011;41730;51.960;20.158;2022-11-25T04:39:40;48.00;;;16.90;;
55800;SDS011;41730;51.960;20.158;2022-11-25T04:42:12;54.70;;;21.00;;
55800;SDS011;41730;51.960;20.158;2022-11-25T04:45:04;51.90;;;20.10;;
55800;SDS011;41730;51.960;20.158;2022-11-25T04:47:53;46.80;;;19.10;;
55800;SDS011;41730;51.960;20.158;2022-11-25T04:50:24;49.80;;;21.70;;
55800;SDS011;41730;51.960;20.158;2022-11-25T04:52:56;50.50;;;19.50;;
55800;SDS011;41730;51.960;20.158;2022-11-25T04:55:27;51.60;;;21.80;;
55800;SDS011;41730;51.960;20.158;2022-11-25T04:57:58;49.80;;;21.60;;
55800;SDS011;41730;51.960;20.158;2022-11-25T05:00:30;58.00;;;23.00;;
55800;SDS011;41730;51.960;20.158;2022-11-25T05:03:02;54.90;;;21.60;;
55800;SDS011;41730;51.960;20.158;2022-11-25T05:05:33;57.60;;;22.40;;
55800;SDS011;41730;51.960;20.158;2022-11-25T05:08:06;57.00;;;21.80;;
55800;SDS011;41730;51.960;20.158;2022-11-25T05:10:37;57.90;;;21.90;;
55800;SDS011;41730;51.960;20.158;2022-11-25T05:13:09;58.60;;;22.40;;
55800;SDS011;41730;51.960;20.158;2022-11-25T05:15:40;55.60;;;21.40;;
55800;SDS011;41730;51.960;20.158;2022-11-25T05:18:12;55.80;;;22.40;;
55800;SDS011;41730;51.960;20.158;2022-11-25T05:20:43;59.90;;;22.80;;
55800;SDS011;41730;51.960;20.158;2022-11-25T05:23:15;56.10;;;21.30;;
55800;SDS011;41730;51.960;20.158;2022-11-25T05:25:47;58.00;;;23.90;;
55800;SDS011;41730;51.960;20.158;2022-11-25T05:28:18;66.30;;;25.80;;
55800;SDS011;41730;51.960;20.158;2022-11-25T05:30:50;64.10;;;24.00;;
55800;SDS011;41730;51.960;20.158;2022-11-25T05:33:21;62.30;;;24.20;;
55800;SDS011;41730;51.960;20.158;2022-11-25T05:35:57;73.90;;;27.30;;
55800;SDS011;41730;51.960;20.158;2022-11-25T05:38:29;58.90;;;23.10;;
55800;SDS011;41730;51.960;20.158;2022-11-25T05:41:01;65.30;;;26.20;;
55800;SDS011;41730;51.960;20.158;2022-11-25T05:43:34;68.50;;;25.10;;
55800;SDS011;41730;51.960;20.158;2022-11-25T05:46:06;63.60;;;24.70;;
55800;SDS011;41730;51.960;20.158;2022-11-25T05:48:39;66.80;;;26.10;;
55800;SDS011;41730;51.960;20.158;2022-11-25T05:51:10;63.20;;;24.70;;
55800;SDS011;41730;51.960;20.158;2022-11-25T05:53:41;66.90;;;24.80;;
55800;SDS011;41730;51.960;20.158;2022-11-25T05:56:13;65.90;;;24.70;;
55800;SDS011;41730;51.960;20.158;2022-11-25T05:58:44;73.60;;;27.50;;
55800;SDS011;41730;51.960;20.158;2022-11-25T06:01:16;71.20;;;30.70;;
55800;SDS011;41730;51.960;20.158;2022-11-25T06:03:47;75.60;;;30.40;;
55800;SDS011;41730;51.960;20.158;2022-11-25T06:06:19;71.90;;;27.90;;
55800;SDS011;41730;51.960;20.158;2022-11-25T06:08:50;70.20;;;27.10;;
55800;SDS011;41730;51.960;20.158;2022-11-25T06:11:22;74.90;;;28.20;;
55800;SDS011;41730;51.960;20.158;2022-11-25T06:13:56;68.20;;;25.30;;
55800;SDS011;41730;51.960;20.158;2022-11-25T06:16:28;64.00;;;24.50;;
55800;SDS011;41730;51.960;20.158;2022-11-25T06:18:59;63.50;;;25.20;;
55800;SDS011;41730;51.960;20.158;2022-11-25T06:21:32;70.50;;;25.40;;
55800;SDS011;41730;51.960;20.158;2022-11-25T06:24:05;74.40;;;27.50;;
55800;SDS011;41730;51.960;20.158;2022-11-25T06:26:37;68.10;;;25.60;;
55800;SDS011;41730;51.960;20.158;2022-11-25T06:29:10;76.90;;;27.40;;
55800;SDS011;41730;51.960;20.158;2022-11-25T06:31:42;70.60;;;26.70;;
55800;SDS011;41730;51.960;20.158;2022-11-25T06:34:14;82.90;;;34.30;;
55800;SDS011;41730;51.960;20.158;2022-11-25T06:36:47;71.20;;;25.10;;
55800;SDS011;41730;51.960;20.158;2022-11-25T06:39:18;62.80;;;23.20;;
55800;SDS011;41730;51.960;20.158;2022-11-25T06:41:50;75.30;;;24.70;;
55800;SDS011;41730;51.960;20.158;2022-11-25T06:44:21;73.80;;;27.20;;
55800;SDS011;41730;51.960;20.158;2022-11-25T06:46:53;70.10;;;26.20;;
55800;SDS011;41730;51.960;20.158;2022-11-25T06:49:25;73.10;;;26.90;;
55800;SDS011;41730;51.960;20.158;2022-11-25T06:51:57;78.80;;;28.20;;
55800;SDS011;41730;51.960;20.158;2022-11-25T06:54:28;99.50;;;38.50;;
55800;SDS011;41730;51.960;20.158;2022-11-25T06:57:01;85.10;;;29.80;;
55800;SDS011;41730;51.960;20.158;2022-11-25T06:59:32;72.40;;;28.80;;
55800;SDS011;41730;51.960;20.158;2022-11-25T07:02:04;75.80;;;27.90;;
55800;SDS011;41730;51.960;20.158;2022-11-25T07:04:37;78.00;;;30.10;;
55800;SDS011;41730;51.960;20.158;2022-11-25T07:07:09;79.60;;;31.20;;
55800;SDS011;41730;51.960;20.158;2022-11-25T07:09:41;74.10;;;28.20;;
55800;SDS011;41730;51.960;20.158;2022-11-25T07:12:12;90.50;;;39.90;;
55800;SDS011;41730;51.960;20.158;2022-11-25T07:14:44;77.50;;;28.70;;
55800;SDS011;41730;51.960;20.158;2022-11-25T07:17:18;74.00;;;27.70;;
55800;SDS011;41730;51.960;20.158;2022-11-25T07:19:49;80.10;;;31.80;;
55800;SDS011;41730;51.960;20.158;2022-11-25T07:22:21;94.10;;;41.30;;
55800;SDS011;41730;51.960;20.158;2022-11-25T07:24:52;86.50;;;30.70;;
55800;SDS011;41730;51.960;20.158;2022-11-25T07:27:24;78.00;;;31.30;;
55800;SDS011;41730;51.960;20.158;2022-11-25T07:29:55;84.10;;;32.90;;
55800;SDS011;41730;51.960;20.158;2022-11-25T07:32:46;83.40;;;31.80;;
55800;SDS011;41730;51.960;20.158;2022-11-25T07:35:18;86.10;;;33.10;;
55800;SDS011;41730;51.960;20.158;2022-11-25T07:37:49;88.80;;;34.20;;
55800;SDS011;41730;51.960;20.158;2022-11-25T07:40:21;84.50;;;31.40;;
55800;SDS011;41730;51.960;20.158;2022-11-25T07:42:53;76.20;;;28.40;;
55800;SDS011;41730;51.960;20.158;2022-11-25T07:45:24;83.60;;;32.30;;
55800;SDS011;41730;51.960;20.158;2022-11-25T07:47:55;73.00;;;28.50;;
55800;SDS011;41730;51.960;20.158;2022-11-25T07:50:29;76.60;;;30.10;;
55800;SDS011;41730;51.960;20.158;2022-11-25T07:53:01;70.50;;;28.90;;
55800;SDS011;41730;51.960;20.158;2022-11-25T07:55:32;86.60;;;32.60;;
55800;SDS011;41730;51.960;20.158;2022-11-25T07:58:04;70.80;;;32.20;;
55800;SDS011;41730;51.960;20.158;2022-11-25T08:00:36;76.70;;;32.00;;
55800;SDS011;41730;51.960;20.158;2022-11-25T08:03:07;79.00;;;30.40;;
55800;SDS011;41730;51.960;20.158;2022-11-25T08:05:39;74.60;;;31.40;;
55800;SDS011;41730;51.960;20.158;2022-11-25T08:08:10;72.70;;;29.60;;
55800;SDS011;41730;51.960;20.158;2022-11-25T08:10:42;73.70;;;29.80;;
55800;SDS011;41730;51.960;20.158;2022-11-25T08:13:13;79.30;;;31.80;;
55800;SDS011;41730;51.960;20.158;2022-11-25T08:15:45;77.60;;;31.20;;
55800;SDS011;41730;51.960;20.158;2022-11-25T08:18:16;75.20;;;30.60;;
55800;SDS011;41730;51.960;20.158;2022-11-25T08:20:48;98.00;;;45.40;;
55800;SDS011;41730;51.960;20.158;2022-11-25T08:23:19;92.90;;;35.30;;
55800;SDS011;41730;51.960;20.158;2022-11-25T08:25:51;96.30;;;39.30;;
55800;SDS011;41730;51.960;20.158;2022-11-25T08:28:23;115.10;;;40.60;;
55800;SDS011;41730;51.960;20.158;2022-11-25T08:30:59;110.10;;;41.50;;
55800;SDS011;41730;51.960;20.158;2022-11-25T08:33:32;101.30;;;39.50;;
55800;SDS011;41730;51.960;20.158;2022-11-25T08:36:04;112.90;;;39.90;;
55800;SDS011;41730;51.960;20.158;2022-11-25T08:38:37;113.90;;;40.70;;
55800;SDS011;41730;51.960;20.158;2022-11-25T08:41:10;102.20;;;38.10;;
55800;SDS011;41730;51.960;20.158;2022-11-25T08:43:43;104.40;;;39.00;;
55800;SDS011;41730;51.960;20.158;2022-11-25T08:46:16;101.20;;;39.10;;
55800;SDS011;41730;51.960;20.158;2022-11-25T08:48:49;104.60;;;37.70;;
55800;SDS011;41730;51.960;20.158;2022-11-25T08:51:23;101.80;;;37.40;;
55800;SDS011;41730;51.960;20.158;2022-11-25T08:56:27;112.70;;;37.50;;
55800;SDS011;41730;51.960;20.158;2022-11-25T08:58:59;107.00;;;39.90;;
55800;SDS011;41730;51.960;20.158;2022-11-25T09:01:30;97.30;;;37.10;;
55800;SDS011;41730;51.960;20.158;2022-11-25T09:04:02;93.30;;;36.60;;
55800;SDS011;41730;51.960;20.158;2022-11-25T09:06:34;93.60;;;37.70;;
55800;SDS011;41730;51.960;20.158;2022-11-25T09:09:07;89.40;;;37.80;;
55800;SDS011;41730;51.960;20.158;2022-11-25T09:11:39;93.10;;;37.60;;
55800;SDS011;41730;51.960;20.158;2022-11-25T09:14:11;88.10;;;36.70;;
55800;SDS011;41730;51.960;20.158;2022-11-25T09:16:43;97.70;;;39.00;;
55800;SDS011;41730;51.960;20.158;2022-11-25T09:19:16;93.30;;;39.60;;
55800;SDS011;41730;51.960;20.158;2022-11-25T09:21:50;88.10;;;33.30;;
55800;SDS011;41730;51.960;20.158;2022-11-25T09:24:22;86.70;;;35.30;;
55800;SDS011;41730;51.960;20.158;2022-11-25T09:26:54;86.60;;;35.20;;
55800;SDS011;41730;51.960;20.158;2022-11-25T09:29:25;90.20;;;39.60;;
55800;SDS011;41730;51.960;20.158;2022-11-25T09:31:58;88.30;;;35.20;;
55800;SDS011;41730;51.960;20.158;2022-11-25T09:34:30;90.90;;;40.40;;
55800;SDS011;41730;51.960;20.158;2022-11-25T09:37:02;90.60;;;39.20;;
55800;SDS011;41730;51.960;20.158;2022-11-25T09:39:34;101.70;;;38.30;;
55800;SDS011;41730;51.960;20.158;2022-11-25T09:42:10;91.60;;;39.20;;
55800;SDS011;41730;51.960;20.158;2022-11-25T09:45:24;93.20;;;36.30;;
55800;SDS011;41730;51.960;20.158;2022-11-25T09:48:31;86.40;;;33.80;;
55800;SDS011;41730;51.960;20.158;2022-11-25T09:51:22;91.20;;;35.80;;
55800;SDS011;41730;51.960;20.158;2022-11-25T09:54:02;88.40;;;34.20;;
55800;SDS011;41730;51.960;20.158;2022-11-25T09:56:41;87.30;;;36.30;;
55800;SDS011;41730;51.960;20.158;2022-11-25T09:59:16;89.30;;;36.70;;
55800;SDS011;41730;51.960;20.158;2022-11-25T10:01:52;86.80;;;34.50;;
55800;SDS011;41730;51.960;20.158;2022-11-25T10:04:31;83.30;;;35.50;;
55800;SDS011;41730;51.960;20.158;2022-11-25T10:07:10;89.70;;;36.60;;
55800;SDS011;41730;51.960;20.158;2022-11-25T10:09:47;89.90;;;36.90;;
55800;SDS011;41730;51.960;20.158;2022-11-25T10:12:23;95.10;;;39.10;;
55800;SDS011;41730;51.960;20.158;2022-11-25T10:14:59;98.30;;;40.00;;
55800;SDS011;41730;51.960;20.158;2022-11-25T10:17:34;108.30;;;43.20;;
55800;SDS011;41730;51.960;20.158;2022-11-25T10:20:14;102.80;;;43.00;;
55800;SDS011;41730;51.960;20.158;2022-11-25T10:22:49;107.50;;;44.90;;
55800;SDS011;41730;51.960;20.158;2022-11-25T10:25:25;104.10;;;44.50;;
55800;SDS011;41730;51.960;20.158;2022-11-25T10:27:59;104.60;;;44.60;;
55800;SDS011;41730;51.960;20.158;2022-11-25T10:30:33;102.80;;;45.50;;
55800;SDS011;41730;51.960;20.158;2022-11-25T10:33:11;102.40;;;43.50;;
55800;SDS011;41730;51.960;20.158;2022-11-25T10:35:48;112.10;;;43.70;;
55800;SDS011;41730;51.960;20.158;2022-11-25T10:38:25;102.30;;;46.00;;
55800;SDS011;41730;51.960;20.158;2022-11-25T10:41:04;112.80;;;47.10;;
55800;SDS011;41730;51.960;20.158;2022-11-25T10:43:36;113.00;;;47.90;;
55800;SDS011;41730;51.960;20.158;2022-11-25T10:46:13;116.10;;;48.10;;
55800;SDS011;41730;51.960;20.158;2022-11-25T10:49:12;127.50;;;53.20;;
55800;SDS011;41730;51.960;20.158;2022-11-25T10:51:49;123.50;;;53.00;;
55800;SDS011;41730;51.960;20.158;2022-11-25T10:54:22;123.50;;;52.50;;
55800;SDS011;41730;51.960;20.158;2022-11-25T10:56:56;122.40;;;52.20;;
55800;SDS011;41730;51.960;20.158;2022-11-25T10:59:30;115.40;;;49.40;;
55800;SDS011;41730;51.960;20.158;2022-11-25T11:02:17;111.50;;;48.10;;
55800;SDS011;41730;51.960;20.158;2022-11-25T11:04:53;112.90;;;49.00;;
55800;SDS011;41730;51.960;20.158;2022-11-25T11:07:28;121.80;;;50.00;;
55800;SDS011;41730;51.960;20.158;2022-11-25T11:10:14;116.30;;;47.80;;
55800;SDS011;41730;51.960;20.158;2022-11-25T11:12:53;131.10;;;54.00;;
55800;SDS011;41730;51.960;20.158;2022-11-25T11:15:28;101.20;;;46.70;;
55800;SDS011;41730;51.960;20.158;2022-11-25T11:18:13;100.10;;;43.80;;
55800;SDS011;41730;51.960;20.158;2022-11-25T11:20:57;105.80;;;45.30;;
55800;SDS011;41730;51.960;20.158;2022-11-25T11:23:29;93.60;;;41.60;;
55800;SDS011;41730;51.960;20.158;2022-11-25T11:26:20;106.40;;;43.20;;
55800;SDS011;41730;51.960;20.158;2022-11-25T11:29:00;102.90;;;42.20;;
55800;SDS011;41730;51.960;20.158;2022-11-25T11:31:43;108.60;;;44.40;;
55800;SDS011;41730;51.960;20.158;2022-11-25T11:34:23;102.00;;;44.30;;
55800;SDS011;41730;51.960;20.158;2022-11-25T11:37:13;98.30;;;40.60;;
55800;SDS011;41730;51.960;20.158;2022-11-25T11:39:57;101.50;;;44.30;;
55800;SDS011;41730;51.960;20.158;2022-11-25T11:42:45;101.50;;;44.80;;
55800;SDS011;41730;51.960;20.158;2022-11-25T11:45:36;101.60;;;44.70;;
55800;SDS011;41730;51.960;20.158;2022-11-25T11:48:23;106.10;;;44.40;;
55800;SDS011;41730;51.960;20.158;2022-11-25T11:51:02;105.20;;;44.80;;
55800;SDS011;41730;51.960;20.158;2022-11-25T11:53:47;99.20;;;43.60;;
55800;SDS011;41730;51.960;20.158;2022-11-25T11:56:28;99.10;;;43.40;;
55800;SDS011;41730;51.960;20.158;2022-11-25T11:59:12;96.00;;;41.00;;
55800;SDS011;41730;51.960;20.158;2022-11-25T12:02:16;92.60;;;41.50;;
55800;SDS011;41730;51.960;20.158;2022-11-25T12:04:58;95.40;;;42.00;;
55800;SDS011;41730;51.960;20.158;2022-11-25T12:07:35;94.80;;;39.80;;
55800;SDS011;41730;51.960;20.158;2022-11-25T12:10:14;91.10;;;39.30;;
55800;SDS011;41730;51.960;20.158;2022-11-25T12:12:51;93.10;;;40.10;;
55800;SDS011;41730;51.960;20.158;2022-11-25T12:15:27;89.00;;;38.90;;
55800;SDS011;41730;51.960;20.158;2022-11-25T12:18:13;89.90;;;40.40;;
55800;SDS011;41730;51.960;20.158;2022-11-25T12:20:54;98.70;;;42.30;;
55800;SDS011;41730;51.960;20.158;2022-11-25T12:23:31;86.90;;;39.10;;
55800;SDS011;41730;51.960;20.158;2022-11-25T12:26:12;92.20;;;40.90;;
55800;SDS011;41730;51.960;20.158;2022-11-25T12:28:51;93.40;;;41.50;;
55800;SDS011;41730;51.960;20.158;2022-11-25T12:31:28;88.40;;;38.50;;
55800;SDS011;41730;51.960;20.158;2022-11-25T12:34:08;90.30;;;41.90;;
55800;SDS011;41730;51.960;20.158;2022-11-25T12:36:45;96.80;;;42.80;;
55800;SDS011;41730;51.960;20.158;2022-11-25T12:39:20;90.70;;;42.10;;
55800;SDS011;41730;51.960;20.158;2022-11-25T12:41:55;106.00;;;48.90;;
55800;SDS011;41730;51.960;20.158;2022-11-25T12:44:30;107.10;;;48.00;;
55800;SDS011;41730;51.960;20.158;2022-11-25T12:47:08;92.70;;;44.50;;
55800;SDS011;41730;51.960;20.158;2022-11-25T12:49:41;100.80;;;47.50;;
55800;SDS011;41730;51.960;20.158;2022-11-25T12:52:18;109.90;;;46.70;;
55800;SDS011;41730;51.960;20.158;2022-11-25T12:55:10;98.80;;;46.40;;
55800;SDS011;41730;51.960;20.158;2022-11-25T12:58:01;93.60;;;46.30;;
55800;SDS011;41730;51.960;20.158;2022-11-25T13:01:00;103.40;;;46.10;;
55800;SDS011;41730;51.960;20.158;2022-11-25T13:03:56;96.70;;;41.80;;
55800;SDS011;41730;51.960;20.158;2022-11-25T13:12:41;87.10;;;38.50;;
55800;SDS011;41730;51.960;20.158;2022-11-25T13:15:26;88.70;;;39.30;;
55800;SDS011;41730;51.960;20.158;2022-11-25T13:18:01;94.60;;;41.30;;
55800;SDS011;41730;51.960;20.158;2022-11-25T13:20:45;86.60;;;35.20;;
55800;SDS011;41730;51.960;20.158;2022-11-25T13:23:26;80.20;;;35.80;;
55800;SDS011;41730;51.960;20.158;2022-11-25T13:26:36;75.30;;;34.50;;
55800;SDS011;41730;51.960;20.158;2022-11-25T13:41:35;77.10;;;34.20;;
55800;SDS011;41730;51.960;20.158;2022-11-25T13:44:13;85.00;;;38.90;;
55800;SDS011;41730;51.960;20.158;2022-11-25T13:47:12;73.60;;;34.90;;
55800;SDS011;41730;51.960;20.158;2022-11-25T13:50:00;69.80;;;32.90;;
55800;SDS011;41730;51.960;20.158;2022-11-25T13:52:43;79.30;;;35.60;;
55800;SDS011;41730;51.960;20.158;2022-11-25T13:55:30;88.60;;;38.80;;
55800;SDS011;41730;51.960;20.158;2022-11-25T13:58:04;85.10;;;36.00;;
55800;SDS011;41730;51.960;20.158;2022-11-25T14:00:49;78.00;;;37.80;;
55800;SDS011;41730;51.960;20.158;2022-11-25T14:03:42;77.20;;;34.00;;
55800;SDS011;41730;51.960;20.158;2022-11-25T14:06:23;77.80;;;31.80;;
55800;SDS011;41730;51.960;20.158;2022-11-25T14:09:03;79.20;;;35.90;;
55800;SDS011;41730;51.960;20.158;2022-11-25T14:11:47;81.50;;;36.80;;
55800;SDS011;41730;51.960;20.158;2022-11-25T14:14:51;76.80;;;32.10;;
55800;SDS011;41730;51.960;20.158;2022-11-25T14:17:37;75.60;;;34.20;;
55800;SDS011;41730;51.960;20.158;2022-11-25T14:20:23;78.90;;;36.60;;
55800;SDS011;41730;51.960;20.158;2022-11-25T14:23:14;75.20;;;32.10;;
55800;SDS011;41730;51.960;20.158;2022-11-25T14:26:03;77.20;;;33.80;;
55800;SDS011;41730;51.960;20.158;2022-11-25T14:28:59;80.40;;;35.50;;
55800;SDS011;41730;51.960;20.158;2022-11-25T14:31:36;75.90;;;34.80;;
55800;SDS011;41730;51.960;20.158;2022-11-25T14:34:14;90.60;;;40.10;;
55800;SDS011;41730;51.960;20.158;2022-11-25T14:36:49;77.20;;;33.30;;
55800;SDS011;41730;51.960;20.158;2022-11-25T14:39:25;88.70;;;40.60;;
55800;SDS011;41730;51.960;20.158;2022-11-25T14:42:01;86.80;;;39.00;;
55800;SDS011;41730;51.960;20.158;2022-11-25T14:44:35;84.50;;;40.50;;
55800;SDS011;41730;51.960;20.158;2022-11-25T14:47:14;92.40;;;43.00;;
55800;SDS011;41730;51.960;20.158;2022-11-25T14:49:52;90.20;;;41.80;;
55800;SDS011;41730;51.960;20.158;2022-11-25T14:52:46;84.70;;;38.50;;
55800;SDS011;41730;51.960;20.158;2022-11-25T14:55:25;84.40;;;36.20;;
55800;SDS011;41730;51.960;20.158;2022-11-25T14:57:58;86.80;;;39.80;;
55800;SDS011;41730;51.960;20.158;2022-11-25T15:00:30;95.20;;;44.60;;
55800;SDS011;41730;51.960;20.158;2022-11-25T15:03:02;105.20;;;45.60;;
55800;SDS011;41730;51.960;20.158;2022-11-25T15:05:35;103.90;;;46.40;;
55800;SDS011;41730;51.960;20.158;2022-11-25T15:08:10;111.30;;;47.00;;
55800;SDS011;41730;51.960;20.158;2022-11-25T15:10:43;98.20;;;45.40;;
55800;SDS011;41730;51.960;20.158;2022-11-25T15:13:26;94.20;;;40.10;;
55800;SDS011;41730;51.960;20.158;2022-11-25T15:16:05;92.40;;;39.10;;
55800;SDS011;41730;51.960;20.158;2022-11-25T15:18:43;93.20;;;39.40;;